createdAt,value
2022-08-07T00:02:37.329Z,99.90
2022-08-07T00:04:09.329Z,99.90
2022-08-07T00:06:41.001Z,99.90
2022-08-07T00:09:22.762Z,99.90
2022-08-07T00:14:31.004Z,99.90
2022-08-07T00:17:01.928Z,99.90
2022-08-07T00:19:59.969Z,99.90
2022-08-07T00:25:06.919Z,99.90
2022-08-07T00:33:00.532Z,99.90
2022-08-07T00:37:59.837Z,99.90
2022-08-07T00:40:39.458Z,99.90
2022-08-07T00:44:00.547Z,99.90
2022-08-07T00:46:02.326Z,99.90
2022-08-07T00:48:35.807Z,99.90
2022-08-07T00:56:30.242Z,99.90
2022-08-07T01:06:29.654Z,99.90
2022-08-07T01:09:00.963Z,99.90
2022-08-07T01:12:23.932Z,99.90
2022-08-07T01:14:28.568Z,99.90
2022-08-07T01:19:32.616Z,99.90
2022-08-07T01:39:59.107Z,99.90
2022-08-07T01:42:38.096Z,99.90
2022-08-07T01:45:17.885Z,99.90
2022-08-07T01:50:40.193Z,99.90
2022-08-07T01:56:04.378Z,99.90
2022-08-07T01:58:52.839Z,99.90
2022-08-07T02:02:01.954Z,99.90
2022-08-07T02:04:26.615Z,99.90
2022-08-07T02:06:59.630Z,99.90
2022-08-07T02:09:33.930Z,99.90
2022-08-07T02:12:22.188Z,99.90
2022-08-07T02:15:01.343Z,99.90
2022-08-07T02:17:40.338Z,99.90
2022-08-07T02:20:17.453Z,99.90
2022-08-07T02:22:54.834Z,99.90
2022-08-07T02:26:10.964Z,99.90
2022-08-07T02:28:24.732Z,99.90
2022-08-07T02:30:58.001Z,99.90
2022-08-07T02:39:16.277Z,99.90
2022-08-07T02:41:54.594Z,99.90
2022-08-07T02:44:26.783Z,99.90
2022-08-07T02:46:58.698Z,99.90
2022-08-07T02:52:44.177Z,99.90
2022-08-07T02:55:27.611Z,99.90
2022-08-07T02:58:05.051Z,99.90
2022-08-07T03:00:35.334Z,99.90
2022-08-07T03:03:13.512Z,99.90
2022-08-07T03:05:46.930Z,99.90
2022-08-07T03:08:17.866Z,99.90
2022-08-07T03:10:57.869Z,99.90
2022-08-07T03:21:26.655Z,99.90
2022-08-07T03:24:19.341Z,99.90
2022-08-07T03:26:57.743Z,99.90
2022-08-07T03:29:51.410Z,99.90
2022-08-07T03:32:34.811Z,99.90
2022-08-07T03:35:17.512Z,99.90
2022-08-07T03:37:58.763Z,99.90
2022-08-07T03:45:52.023Z,99.90
2022-08-07T03:54:05.772Z,99.90
2022-08-07T03:56:33.145Z,99.90
2022-08-07T03:59:09.993Z,99.90
2022-08-07T04:01:46.081Z,99.90
2022-08-07T04:04:18.322Z,99.90
2022-08-07T04:38:25.654Z,99.90
2022-08-07T04:47:04.859Z,99.90
2022-08-07T04:50:03.516Z,99.90
2022-08-07T04:52:59.773Z,99.90
2022-08-07T04:58:23.958Z,99.90
2022-08-07T05:00:08.971Z,99.90
2022-08-07T05:02:45.014Z,99.90
2022-08-07T05:05:53.648Z,99.90
2022-08-07T05:09:01.654Z,99.90
2022-08-07T05:11:57.407Z,99.90
2022-08-07T05:14:59.146Z,99.90
2022-08-07T05:20:27.358Z,99.90
2022-08-07T05:23:15.851Z,99.90
2022-08-07T05:26:10.857Z,99.90
2022-08-07T05:28:40.465Z,99.90
2022-08-07T05:31:17.922Z,99.90
2022-08-07T05:34:01.171Z,99.90
2022-08-07T05:36:39.368Z,99.90
2022-08-07T05:40:17.926Z,99.90
2022-08-07T05:47:38.568Z,99.90
2022-08-07T05:50:21.943Z,99.90
2022-08-07T05:57:50.543Z,99.90
2022-08-07T06:00:19.761Z,99.90
2022-08-07T06:02:57.633Z,99.90
2022-08-07T06:16:16.455Z,99.90
2022-08-07T06:18:51.870Z,99.90
2022-08-07T06:27:04.107Z,99.90
2022-08-07T06:40:13.107Z,99.90
2022-08-07T06:42:37.616Z,99.90
2022-08-07T06:45:26.664Z,99.90
2022-08-07T06:48:02.931Z,99.90
2022-08-07T06:50:43.299Z,99.90
2022-08-07T06:55:28.605Z,99.90
2022-08-07T06:56:15.214Z,99.90
2022-08-07T07:00:12.759Z,99.90
2022-08-07T07:01:48.762Z,99.90
2022-08-07T07:04:32.505Z,99.90
2022-08-07T07:07:18.789Z,99.90
2022-08-07T07:09:50.819Z,99.90
2022-08-07T07:12:53.344Z,99.90
2022-08-07T07:15:32.684Z,99.90
2022-08-07T07:18:47.370Z,99.90
2022-08-07T07:21:27.158Z,99.90
2022-08-07T07:24:12.621Z,99.90
2022-08-07T07:26:51.823Z,99.90
2022-08-07T07:29:56.586Z,99.90
2022-08-07T07:32:15.500Z,99.90
2022-08-07T07:34:48.663Z,99.90
2022-08-07T07:40:15.623Z,99.90
2022-08-07T07:42:51.342Z,99.90
2022-08-07T07:46:37.691Z,99.90
2022-08-07T07:48:34.746Z,99.90
2022-08-07T07:51:08.471Z,99.90
2022-08-07T07:53:51.543Z,99.90
2022-08-07T07:56:30.207Z,99.90
2022-08-07T07:59:02.235Z,99.90
2022-08-07T08:02:02.511Z,99.90
2022-08-07T08:06:55.514Z,99.90
2022-08-07T08:09:29.572Z,99.90
2022-08-07T08:12:03.956Z,99.90
2022-08-07T08:14:36.361Z,99.90
2022-08-07T08:17:55.801Z,99.90
2022-08-07T08:20:23.239Z,99.90
2022-08-07T08:23:14.952Z,99.90
2022-08-07T08:26:07.082Z,99.90
2022-08-07T08:28:45.059Z,99.90
2022-08-07T08:32:17.258Z,99.90
2022-08-07T08:34:35.881Z,99.90
2022-08-07T08:39:54.492Z,99.90
2022-08-07T08:42:51.705Z,99.90
2022-08-07T08:45:59.372Z,99.90
2022-08-07T08:49:05.259Z,99.90
2022-08-07T08:51:49.687Z,99.90
2022-08-07T08:54:48.539Z,99.90
2022-08-07T08:57:37.271Z,99.90
2022-08-07T09:00:10.559Z,99.90
2022-08-07T09:02:57.623Z,99.90
2022-08-07T09:05:47.122Z,99.90
2022-08-07T09:08:33.811Z,99.90
2022-08-07T09:11:24.306Z,99.90
2022-08-07T09:14:50.659Z,99.90
2022-08-07T09:17:58.879Z,99.90
2022-08-07T09:21:06.314Z,99.90
2022-08-07T09:26:53.954Z,99.90
2022-08-07T09:30:03.368Z,99.90
2022-08-07T09:33:16.630Z,99.90
2022-08-07T09:36:43.027Z,99.90
2022-08-07T09:39:54.076Z,99.90
2022-08-07T09:43:04.970Z,99.90
2022-08-07T09:47:52.191Z,99.90
2022-08-07T09:50:18.151Z,99.90
2022-08-07T09:52:40.413Z,99.90
2022-08-07T09:56:02.748Z,99.90
2022-08-07T09:59:14.750Z,99.90
2022-08-07T10:02:24.123Z,99.90
2022-08-07T10:05:59.714Z,99.90
2022-08-07T10:08:51.585Z,99.90
2022-08-07T10:12:01.427Z,99.90
2022-08-07T10:15:43.981Z,99.90
2022-08-07T10:18:41.373Z,99.90
2022-08-07T10:22:12.418Z,99.50
2022-08-07T10:25:01.373Z,99.90
2022-08-07T10:28:05.830Z,99.50
2022-08-07T10:31:06.112Z,98.60
2022-08-07T10:34:05.742Z,98.50
2022-08-07T10:42:31.384Z,98.20
2022-08-07T10:48:34.706Z,97.10
2022-08-07T10:51:39.568Z,99.90
2022-08-07T10:55:00.903Z,94.00
2022-08-07T11:00:09.794Z,95.90
2022-08-07T11:03:23.457Z,95.60
2022-08-07T11:06:26.706Z,97.20
2022-08-07T11:10:09.237Z,99.60
2022-08-07T11:12:31.985Z,95.70
2022-08-07T11:15:14.576Z,95.40
2022-08-07T11:18:27.475Z,95.10
2022-08-07T11:21:06.665Z,99.90
2022-08-07T11:24:04.748Z,91.70
2022-08-07T11:26:56.198Z,92.90
2022-08-07T11:29:47.476Z,92.90
2022-08-07T11:32:46.194Z,91.60
2022-08-07T11:35:26.723Z,92.70
2022-08-07T11:38:50.329Z,92.20
2022-08-07T11:41:31.072Z,94.30
2022-08-07T11:44:58.018Z,91.80
2022-08-07T11:48:01.791Z,91.50
2022-08-07T11:50:44.590Z,99.00
2022-08-07T11:53:35.638Z,89.80
2022-08-07T11:56:36.930Z,87.80
2022-08-07T12:00:12.326Z,86.50
2022-08-07T12:03:41.668Z,97.80
2022-08-07T12:09:29.163Z,93.70
2022-08-07T12:12:11.136Z,87.80
2022-08-07T12:15:17.159Z,88.50
2022-08-07T12:18:08.262Z,81.30
2022-08-07T12:21:14.983Z,86.00
2022-08-07T12:24:05.258Z,83.00
2022-08-07T12:29:38.675Z,78.00
2022-08-07T12:32:41.798Z,75.30
2022-08-07T12:35:14.091Z,75.00
2022-08-07T12:38:11.610Z,72.60
2022-08-07T12:40:47.195Z,71.70
2022-08-07T12:44:04.873Z,70.20
2022-08-07T12:46:40.088Z,72.30
2022-08-07T12:49:48.939Z,83.90
2022-08-07T12:53:05.361Z,71.80
2022-08-07T12:56:04.129Z,67.90
2022-08-07T12:58:43.978Z,68.40
2022-08-07T13:01:32.556Z,68.70
2022-08-07T13:10:52.098Z,63.30
2022-08-07T13:13:47.447Z,68.90
2022-08-07T13:16:46.654Z,65.10
2022-08-07T13:19:45.741Z,64.50
2022-08-07T13:22:36.270Z,66.60
2022-08-07T13:25:15.137Z,79.90
2022-08-07T13:28:10.931Z,60.70
2022-08-07T13:31:13.998Z,63.80
2022-08-07T13:34:30.667Z,63.30
2022-08-07T13:37:20.104Z,60.60
2022-08-07T13:40:35.839Z,64.30
2022-08-07T13:42:59.746Z,62.10
2022-08-07T13:46:11.711Z,61.50
2022-08-07T13:48:34.255Z,60.60
2022-08-07T13:51:26.951Z,62.80
2022-08-07T13:54:00.516Z,59.50
2022-08-07T13:56:35.357Z,64.30
2022-08-07T13:59:22.159Z,67.10
2022-08-07T14:02:04.767Z,58.00
2022-08-07T14:04:47.443Z,57.30
2022-08-07T14:07:59.996Z,63.20
2022-08-07T14:10:42.058Z,60.50
2022-08-07T14:13:20.283Z,56.90
2022-08-07T14:16:06.437Z,59.20
2022-08-07T14:18:57.449Z,55.30
2022-08-07T14:22:04.054Z,55.00
2022-08-07T14:24:35.693Z,57.90
2022-08-07T14:28:11.910Z,57.90
2022-08-07T14:30:11.050Z,55.00
2022-08-07T14:32:47.923Z,54.90
2022-08-07T14:35:44.626Z,54.50
2022-08-07T14:38:26.578Z,57.90
2022-08-07T14:41:04.834Z,57.10
2022-08-07T14:43:57.743Z,55.40
2022-08-07T14:46:32.019Z,60.70
2022-08-07T14:49:17.437Z,59.30
2022-08-07T14:52:04.929Z,53.80
2022-08-07T14:54:43.463Z,60.10
2022-08-07T14:57:19.177Z,65.50
2022-08-07T15:00:03.759Z,56.00
2022-08-07T15:02:39.237Z,55.30
2022-08-07T15:05:20.118Z,59.40
2022-08-07T15:10:26.108Z,56.80
2022-08-07T15:13:16.290Z,56.10
2022-08-07T15:15:52.189Z,56.30
2022-08-07T15:18:46.225Z,57.50
2022-08-07T15:21:58.411Z,56.40
2022-08-07T15:25:13.546Z,54.60
2022-08-07T15:27:20.396Z,54.30
2022-08-07T15:30:08.905Z,55.10
2022-08-07T15:32:51.036Z,58.60
2022-08-07T15:36:02.224Z,56.50
2022-08-07T15:38:50.999Z,62.70
2022-08-07T15:41:23.696Z,54.80
2022-08-07T15:44:11.445Z,75.60
2022-08-07T15:46:49.998Z,56.60
2022-08-07T15:52:30.231Z,57.60
2022-08-07T15:55:08.846Z,56.80
2022-08-07T15:57:49.038Z,59.30
2022-08-07T16:00:31.319Z,56.90
2022-08-07T16:03:21.532Z,61.20
2022-08-07T16:08:40.112Z,56.70
2022-08-07T16:11:43.406Z,56.60
2022-08-07T16:14:17.238Z,56.40
2022-08-07T16:18:01.865Z,56.60
2022-08-07T16:22:03.243Z,57.50
2022-08-07T16:24:36.987Z,59.00
2022-08-07T16:27:24.900Z,65.90
2022-08-07T16:30:30.391Z,65.70
2022-08-07T16:34:01.722Z,58.60
2022-08-07T16:36:33.737Z,69.00
2022-08-07T16:39:49.067Z,72.20
2022-08-07T16:42:46.838Z,75.60
2022-08-07T16:46:21.174Z,54.00
2022-08-07T16:52:01.232Z,54.70
2022-08-07T16:55:08.207Z,55.90
2022-08-07T16:58:15.887Z,62.30
2022-08-07T17:01:41.354Z,70.50
2022-08-07T17:07:03.108Z,67.20
2022-08-07T17:10:05.216Z,65.80
2022-08-07T17:12:48.546Z,58.00
2022-08-07T17:15:44.520Z,58.30
2022-08-07T17:18:35.314Z,65.40
2022-08-07T17:21:18.723Z,59.00
2022-08-07T17:24:42.685Z,58.50
2022-08-07T17:27:20.119Z,59.80
2022-08-07T17:30:14.526Z,58.50
2022-08-07T17:34:09.446Z,57.90
2022-08-07T17:36:20.537Z,57.60
2022-08-07T17:39:10.343Z,60.60
2022-08-07T17:42:03.414Z,58.90
2022-08-07T17:44:50.213Z,60.00
2022-08-07T17:47:38.554Z,68.90
2022-08-07T17:51:03.970Z,59.00
2022-08-07T17:54:29.703Z,61.50
2022-08-07T17:57:18.737Z,69.70
2022-08-07T18:00:05.649Z,59.30
2022-08-07T18:02:56.828Z,60.80
2022-08-07T18:06:01.659Z,58.90
2022-08-07T18:08:34.527Z,59.20
2022-08-07T18:12:17.716Z,59.20
2022-08-07T18:15:11.926Z,60.80
2022-08-07T18:18:46.849Z,63.70
2022-08-07T18:21:04.030Z,63.80
2022-08-07T18:23:50.713Z,82.80
2022-08-07T18:27:39.268Z,63.20
2022-08-07T18:30:32.621Z,65.60
2022-08-07T18:33:38.881Z,64.00
2022-08-07T18:37:09.393Z,65.50
2022-08-07T18:40:06.408Z,64.50
2022-08-07T18:43:03.694Z,71.90
2022-08-07T18:46:25.948Z,70.40
2022-08-07T18:50:31.057Z,71.90
2022-08-07T18:52:38.191Z,84.60
2022-08-07T18:55:43.150Z,66.40
2022-08-07T18:58:31.154Z,66.10
2022-08-07T19:02:33.387Z,66.20
2022-08-07T19:05:10.378Z,70.80
2022-08-07T19:08:38.717Z,68.30
2022-08-07T19:14:40.479Z,69.70
2022-08-07T19:17:59.422Z,68.10
2022-08-07T19:20:29.201Z,67.80
2022-08-07T19:23:58.136Z,69.10
2022-08-07T19:26:29.958Z,70.40
2022-08-07T19:31:00.551Z,72.00
2022-08-07T19:32:17.050Z,72.30
2022-08-07T19:34:56.513Z,72.50
2022-08-07T19:40:16.818Z,73.20
2022-08-07T19:46:07.859Z,74.30
2022-08-07T19:48:44.491Z,73.10
2022-08-07T19:51:51.701Z,73.80
2022-08-07T19:54:29.832Z,75.70
2022-08-07T19:59:59.977Z,76.50
2022-08-07T20:02:51.674Z,74.10
2022-08-07T20:06:00.609Z,75.90
2022-08-07T20:08:28.790Z,77.60
2022-08-07T20:11:09.599Z,86.90
2022-08-07T20:13:42.300Z,76.70
2022-08-07T20:16:34.954Z,77.50
2022-08-07T20:19:11.056Z,77.80
2022-08-07T20:21:47.611Z,82.60
2022-08-07T20:24:31.868Z,81.70
2022-08-07T20:27:03.186Z,77.60
2022-08-07T20:29:49.465Z,80.10
2022-08-07T20:32:41.468Z,79.50
2022-08-07T20:35:16.280Z,79.10
2022-08-07T20:37:58.877Z,79.70
2022-08-07T20:40:34.489Z,80.20
2022-08-07T20:43:09.404Z,82.00
2022-08-07T20:46:28.786Z,81.30
2022-08-07T20:48:37.316Z,81.40
2022-08-07T20:51:11.389Z,80.80
2022-08-07T20:54:03.693Z,82.10
2022-08-07T20:56:33.480Z,82.20
2022-08-07T20:59:06.350Z,82.70
2022-08-07T21:04:28.969Z,84.30
2022-08-07T21:07:04.437Z,83.00
2022-08-07T21:09:53.308Z,82.70
2022-08-07T21:12:32.229Z,84.10
2022-08-07T21:15:08.153Z,84.10
2022-08-07T21:18:03.694Z,82.60
2022-08-07T21:23:15.333Z,84.90
2022-08-07T21:29:01.244Z,84.60
2022-08-07T21:32:44.192Z,85.30
2022-08-07T21:35:08.043Z,86.50
2022-08-07T21:37:58.367Z,86.30
2022-08-07T21:40:55.205Z,85.30
2022-08-07T21:43:56.840Z,85.40
2022-08-07T21:46:38.942Z,86.90
2022-08-07T21:49:40.661Z,86.80
2022-08-07T21:52:42.487Z,86.60
2022-08-07T21:55:28.229Z,87.30
2022-08-07T21:58:55.546Z,92.20
2022-08-07T22:02:07.435Z,86.40
2022-08-07T22:04:51.438Z,85.90
2022-08-07T22:07:31.512Z,86.50
2022-08-07T22:10:07.379Z,87.40
2022-08-07T22:12:46.254Z,89.10
2022-08-07T22:16:44.358Z,86.80
2022-08-07T22:18:28.911Z,89.00
2022-08-07T22:21:25.171Z,88.80
2022-08-07T22:24:18.190Z,89.80
2022-08-07T22:27:17.903Z,87.90
2022-08-07T22:30:19.349Z,88.40
2022-08-07T22:33:07.025Z,88.50
2022-08-07T22:35:53.327Z,88.40
2022-08-07T22:41:10.925Z,89.90
2022-08-07T22:47:02.001Z,90.00
2022-08-07T22:50:11.109Z,90.10
2022-08-07T22:54:08.015Z,90.30
2022-08-07T22:56:14.882Z,90.60
2022-08-07T23:01:59.226Z,90.80
2022-08-07T23:04:57.009Z,91.10
2022-08-07T23:07:53.954Z,91.10
2022-08-07T23:10:50.368Z,90.70
2022-08-07T23:13:49.151Z,91.90
2022-08-07T23:16:55.571Z,91.40
2022-08-07T23:20:11.509Z,91.20
2022-08-07T23:22:56.765Z,90.90
2022-08-07T23:26:00.478Z,91.30
2022-08-07T23:28:58.974Z,91.30
2022-08-07T23:35:04.568Z,91.10
2022-08-07T23:40:53.872Z,91.50
2022-08-07T23:43:38.062Z,91.90
2022-08-07T23:46:37.405Z,91.60
2022-08-07T23:49:26.172Z,91.60
2022-08-07T23:53:08.846Z,91.90
2022-08-07T23:55:52.353Z,92.40
2022-08-07T23:58:37.363Z,92.90
